Time;durP1;ratioP1;P1;durP2;ratioP2;P2;SDS_P1;SDS_P2;PMS_P1;PMS_P2;Temp;Humidity;BMP_temperature;BMP_pressure;BME280_temperature;BME280_humidity;BME280_pressure;Samples;Min_cycle;Max_cycle;Signal;HPM_P1;HPM_P2
2022/12/21 00:00:47;;;;;;;19.80;14.87;;;;;;;;;;6215220;23;20460;-68
2022/12/21 00:03:12;;;;;;;26.30;13.70;;;;;;;;;;6238220;22;20182;-68
2022/12/21 00:05:37;;;;;;;16.57;13.23;;;;;;;;;;6241035;23;20214;-68
2022/12/21 00:08:03;;;;;;;17.60;12.90;;;;;;;;;;6237898;23;20651;-68
2022/12/21 00:10:29;;;;;;;18.83;13.10;;;;;;;;;;6240269;23;20175;-68
2022/12/21 00:12:54;;;;;;;20.80;12.93;;;;;;;;;;6240833;22;20367;-68
2022/12/21 00:15:20;;;;;;;13.80;11.33;;;;;;;;;;6239020;23;20210;-68
2022/12/21 00:17:45;;;;;;;16.47;12.50;;;;;;;;;;6239939;23;20193;-68
2022/12/21 00:20:10;;;;;;;15.57;12.17;;;;;;;;;;6242555;23;20183;-68
2022/12/21 00:22:36;;;;;;;16.67;13.17;;;;;;;;;;6241696;23;20147;-68
2022/12/21 00:25:01;;;;;;;17.73;13.20;;;;;;;;;;6239533;22;20167;-68
2022/12/21 00:27:26;;;;;;;15.50;12.20;;;;;;;;;;6238228;23;20178;-68
2022/12/21 00:29:51;;;;;;;14.90;12.20;;;;;;;;;;6240710;23;20151;-68
2022/12/21 00:32:17;;;;;;;13.90;10.60;;;;;;;;;;6240243;23;20663;-68
2022/12/21 00:34:42;;;;;;;13.60;10.97;;;;;;;;;;6240831;22;20170;-68
2022/12/21 00:37:07;;;;;;;16.90;11.73;;;;;;;;;;6240034;23;20449;-68
2022/12/21 00:39:32;;;;;;;15.60;11.90;;;;;;;;;;6240327;23;20155;-68
2022/12/21 00:41:58;;;;;;;15.83;12.20;;;;;;;;;;6239386;23;20147;-68
2022/12/21 00:44:23;;;;;;;17.57;11.83;;;;;;;;;;6238930;22;20511;-68
2022/12/21 00:46:48;;;;;;;11.87;10.50;;;;;;;;;;6239453;23;20147;-68
2022/12/21 00:49:14;;;;;;;13.10;11.20;;;;;;;;;;6240613;23;20175;-68
2022/12/21 00:51:39;;;;;;;12.40;10.73;;;;;;;;;;6241118;23;20212;-68
2022/12/21 00:54:04;;;;;;;14.30;10.70;;;;;;;;;;6242405;22;20213;-68
2022/12/21 00:56:30;;;;;;;14.63;11.03;;;;;;;;;;6241635;23;20481;-68
2022/12/21 00:58:55;;;;;;;15.20;11.10;;;;;;;;;;6241290;23;20521;-69
2022/12/21 01:01:22;;;;;;;12.30;10.00;;;;;;;;;;6240042;23;20152;-69
2022/12/21 01:03:48;;;;;;;12.83;10.33;;;;;;;;;;6241632;22;20257;-69
2022/12/21 01:06:14;;;;;;;10.83;8.63;;;;;;;;;;6240568;23;20468;-69
2022/12/21 01:08:39;;;;;;;13.10;8.00;;;;;;;;;;6214499;23;20502;-69
2022/12/21 01:11:05;;;;;;;9.13;8.03;;;;;;;;;;6241341;23;20503;-69
2022/12/21 01:13:31;;;;;;;10.27;8.90;;;;;;;;;;6240161;22;20170;-69
2022/12/21 01:15:56;;;;;;;10.73;9.47;;;;;;;;;;6239750;23;20561;-69
2022/12/21 01:18:22;;;;;;;13.00;9.73;;;;;;;;;;6214550;23;20930;-69
2022/12/21 01:20:48;;;;;;;10.60;8.80;;;;;;;;;;6240821;23;20173;-69
2022/12/21 01:23:15;;;;;;;17.23;9.77;;;;;;;;;;6241477;22;20633;-69
2022/12/21 01:25:41;;;;;;;9.90;8.90;;;;;;;;;;6214776;23;20455;-69
2022/12/21 01:28:07;;;;;;;10.00;8.90;;;;;;;;;;6241632;23;20374;-69
2022/12/21 01:30:32;;;;;;;14.00;9.77;;;;;;;;;;6240268;23;20755;-69
2022/12/21 01:32:57;;;;;;;9.23;8.37;;;;;;;;;;6241635;22;20143;-69
2022/12/21 01:35:22;;;;;;;10.07;9.17;;;;;;;;;;6212542;23;20163;-68
2022/12/21 01:37:48;;;;;;;9.57;8.67;;;;;;;;;;6238501;23;20155;-69
2022/12/21 01:40:13;;;;;;;9.77;8.77;;;;;;;;;;6237045;23;20147;-69
2022/12/21 01:42:39;;;;;;;9.97;8.97;;;;;;;;;;6239408;23;20147;-69
2022/12/21 01:45:15;;;;;;;9.53;8.63;;;;;;;;;;6238604;22;20170;-69
2022/12/21 01:47:45;;;;;;;8.97;8.07;;;;;;;;;;6239271;23;20203;-69
2022/12/21 01:50:34;;;;;;;18.70;8.90;;;;;;;;;;6239062;23;20397;-68
2022/12/21 01:53:01;;;;;;;8.03;7.30;;;;;;;;;;6219016;22;20484;-69
2022/12/21 01:55:28;;;;;;;9.33;8.43;;;;;;;;;;6240143;23;20397;-69
2022/12/21 01:57:53;;;;;;;8.33;7.53;;;;;;;;;;6239032;23;20367;-69
2022/12/21 02:00:19;;;;;;;22.33;9.20;;;;;;;;;;6239032;23;20375;-69
2022/12/21 02:02:55;;;;;;;13.43;8.80;;;;;;;;;;6240439;23;20143;-69
2022/12/21 02:05:50;;;;;;;9.20;8.30;;;;;;;;;;6241370;23;20162;-69
2022/12/21 02:08:15;;;;;;;14.50;8.63;;;;;;;;;;6104100;23;20370;-68
2022/12/21 02:10:40;;;;;;;15.53;9.20;;;;;;;;;;6239216;23;20409;-68
2022/12/21 02:13:08;;;;;;;34.43;9.77;;;;;;;;;;6239167;22;20712;-68
2022/12/21 02:15:52;;;;;;;24.80;8.93;;;;;;;;;;6238452;23;20676;-68
2022/12/21 02:18:26;;;;;;;38.83;9.73;;;;;;;;;;6233915;23;20867;-68
2022/12/21 02:21:04;;;;;;;9.77;8.87;;;;;;;;;;6211522;23;20381;-68
2022/12/21 02:23:39;;;;;;;10.30;9.30;;;;;;;;;;6238667;22;20386;-83
2022/12/21 02:26:05;;;;;;;11.60;8.83;;;;;;;;;;6263265;22;20421;-83
2022/12/21 02:28:49;;;;;;;17.50;10.00;;;;;;;;;;6264433;22;20381;-83
2022/12/21 02:31:28;;;;;;;31.37;9.47;;;;;;;;;;6264191;22;20227;-82
2022/12/21 02:33:53;;;;;;;27.20;9.00;;;;;;;;;;6258494;23;20962;-82
2022/12/21 02:36:26;;;;;;;21.47;9.70;;;;;;;;;;6259551;23;20379;-83
2022/12/21 02:38:59;;;;;;;19.03;9.13;;;;;;;;;;6233969;23;20146;-82
2022/12/21 02:41:40;;;;;;;10.67;9.57;;;;;;;;;;6235376;23;20377;-82
2022/12/21 02:44:14;;;;;;;10.50;9.40;;;;;;;;;;6236571;23;20397;-82
2022/12/21 02:46:47;;;;;;;27.83;9.70;;;;;;;;;;6262474;23;20787;-82
2022/12/21 02:49:16;;;;;;;16.30;8.90;;;;;;;;;;6235568;23;20378;-83
2022/12/21 02:51:48;;;;;;;11.80;9.23;;;;;;;;;;6233985;23;20468;-83
2022/12/21 02:54:14;;;;;;;20.60;9.13;;;;;;;;;;6260855;23;20391;-83
2022/12/21 02:56:39;;;;;;;15.43;9.70;;;;;;;;;;6233910;23;20374;-82
2022/12/21 02:59:08;;;;;;;32.30;9.60;;;;;;;;;;6235485;23;20377;-83
2022/12/21 03:01:52;;;;;;;25.17;9.60;;;;;;;;;;6261236;23;20139;-83
2022/12/21 03:04:17;;;;;;;38.50;9.80;;;;;;;;;;6260316;23;20398;-83
2022/12/21 03:06:42;;;;;;;27.33;8.60;;;;;;;;;;6261493;23;21135;-83
2022/12/21 03:09:11;;;;;;;17.13;9.30;;;;;;;;;;6259113;23;20151;-83
2022/12/21 03:11:45;;;;;;;17.47;10.00;;;;;;;;;;6259306;23;20179;-83
2022/12/21 03:14:15;;;;;;;22.60;10.23;;;;;;;;;;6233038;23;20410;-84
2022/12/21 03:16:51;;;;;;;15.67;9.80;;;;;;;;;;6259808;23;20359;-83
2022/12/21 03:19:20;;;;;;;25.40;10.60;;;;;;;;;;6235542;23;20381;-84
2022/12/21 03:21:46;;;;;;;38.50;10.60;;;;;;;;;;6234606;23;20958;-83
2022/12/21 03:24:12;;;;;;;80.03;11.60;;;;;;;;;;6234120;23;20408;-84
2022/12/21 03:26:40;;;;;;;31.57;11.00;;;;;;;;;;6234281;23;20377;-83
2022/12/21 03:29:08;;;;;;;37.50;10.93;;;;;;;;;;6259657;23;20158;-84
2022/12/21 03:31:40;;;;;;;108.37;11.97;;;;;;;;;;6233405;23;20417;-84
2022/12/21 03:34:10;;;;;;;17.50;10.00;;;;;;;;;;6235249;23;20398;-84
2022/12/21 03:36:42;;;;;;;33.27;11.10;;;;;;;;;;6234563;23;20366;-84
2022/12/21 03:39:10;;;;;;;95.07;11.30;;;;;;;;;;6260392;23;20529;-84
2022/12/21 03:41:42;;;;;;;32.90;9.47;;;;;;;;;;6261832;23;20375;-84
2022/12/21 03:44:09;;;;;;;18.10;9.90;;;;;;;;;;6236837;23;20432;-84
2022/12/21 03:46:39;;;;;;;11.60;10.17;;;;;;;;;;6263108;23;20438;-83
2022/12/21 03:49:07;;;;;;;14.90;9.83;;;;;;;;;;6236702;23;20374;-84
2022/12/21 03:51:45;;;;;;;19.53;9.37;;;;;;;;;;6262349;23;20508;-84
2022/12/21 03:54:18;;;;;;;53.70;10.27;;;;;;;;;;6263494;23;20413;-83
2022/12/21 03:56:44;;;;;;;16.97;9.90;;;;;;;;;;6236646;23;20362;-83
2022/12/21 03:59:10;;;;;;;25.03;10.40;;;;;;;;;;6235466;23;20377;-83
2022/12/21 04:01:42;;;;;;;35.57;9.60;;;;;;;;;;6234625;23;20238;-84
2022/12/21 04:04:20;;;;;;;64.77;9.10;;;;;;;;;;6262424;23;20402;-83
2022/12/21 04:06:47;;;;;;;20.80;9.23;;;;;;;;;;6237324;23;20374;-82
2022/12/21 04:09:12;;;;;;;21.93;8.97;;;;;;;;;;6237010;23;20404;-84
2022/12/21 04:14:22;;;;;;;10.57;9.30;;;;;;;;;;6263013;23;20227;-83
2022/12/21 04:16:48;;;;;;;63.03;9.63;;;;;;;;;;6236278;23;20366;-84
2022/12/21 04:21:57;;;;;;;74.50;10.30;;;;;;;;;;6263059;23;20157;-83
2022/12/21 04:29:53;;;;;;;42.03;11.40;;;;;;;;;;6264167;23;20358;-84
2022/12/21 04:32:18;;;;;;;58.40;9.80;;;;;;;;;;6263757;23;20441;-83
2022/12/21 04:34:43;;;;;;;40.30;9.80;;;;;;;;;;6238777;23;20167;-83
2022/12/21 04:39:53;;;;;;;16.13;9.67;;;;;;;;;;6265883;23;20159;-83
2022/12/21 04:42:18;;;;;;;39.53;10.30;;;;;;;;;;6237482;23;20382;-83
2022/12/21 04:44:44;;;;;;;13.30;10.17;;;;;;;;;;6262338;23;20194;-83
2022/12/21 04:47:09;;;;;;;21.00;10.40;;;;;;;;;;6236683;23;20155;-83
2022/12/21 04:49:34;;;;;;;43.23;9.80;;;;;;;;;;6263249;23;20183;-83
2022/12/21 04:52:00;;;;;;;19.53;9.50;;;;;;;;;;6261697;23;20617;-83
2022/12/21 04:54:25;;;;;;;20.13;10.30;;;;;;;;;;6235643;23;20173;-84
2022/12/21 04:56:50;;;;;;;32.07;10.57;;;;;;;;;;6235668;23;20151;-84
2022/12/21 04:59:16;;;;;;;53.30;11.07;;;;;;;;;;6260867;23;20157;-84
2022/12/21 05:01:44;;;;;;;12.90;9.83;;;;;;;;;;6234179;23;20540;-83
2022/12/21 05:04:10;;;;;;;14.10;9.50;;;;;;;;;;6260980;23;20163;-84
2022/12/21 05:06:35;;;;;;;109.33;11.30;;;;;;;;;;6235486;23;20385;-84
2022/12/21 05:09:01;;;;;;;48.90;10.80;;;;;;;;;;6261062;23;20366;-84
2022/12/21 05:11:26;;;;;;;47.00;11.00;;;;;;;;;;6235137;23;20240;-84
2022/12/21 05:13:51;;;;;;;33.77;11.37;;;;;;;;;;6233852;23;20173;-84
2022/12/21 05:16:18;;;;;;;44.27;11.17;;;;;;;;;;6233932;23;20250;-84
2022/12/21 05:18:44;;;;;;;41.17;10.30;;;;;;;;;;6233552;23;20147;-84
2022/12/21 05:21:09;;;;;;;17.50;9.80;;;;;;;;;;6233640;23;20436;-84
2022/12/21 05:23:35;;;;;;;29.47;10.00;;;;;;;;;;6234662;23;20446;-84
2022/12/21 05:26:01;;;;;;;13.13;10.40;;;;;;;;;;6234625;23;20207;-84
2022/12/21 05:28:30;;;;;;;47.70;10.70;;;;;;;;;;6259525;23;20155;-84
2022/12/21 05:30:55;;;;;;;31.57;10.33;;;;;;;;;;6234693;23;20448;-84
2022/12/21 05:33:21;;;;;;;66.37;11.70;;;;;;;;;;6234092;23;20370;-84
2022/12/21 05:35:46;;;;;;;38.73;10.00;;;;;;;;;;6234107;23;20458;-84
2022/12/21 05:38:12;;;;;;;14.13;8.73;;;;;;;;;;6234793;23;20154;-84
2022/12/21 05:40:37;;;;;;;24.93;9.97;;;;;;;;;;6235293;23;20186;-85
2022/12/21 05:43:04;;;;;;;14.87;9.80;;;;;;;;;;6260894;23;20143;-84
2022/12/21 05:45:29;;;;;;;20.10;8.37;;;;;;;;;;6260016;23;20163;-84
2022/12/21 05:47:55;;;;;;;23.07;9.20;;;;;;;;;;6233899;23;20910;-84
2022/12/21 05:50:21;;;;;;;11.47;8.43;;;;;;;;;;6234091;23;20172;-84
2022/12/21 05:52:46;;;;;;;45.97;10.77;;;;;;;;;;6234436;23;20402;-84
2022/12/21 05:55:12;;;;;;;15.37;8.80;;;;;;;;;;6233833;23;20177;-85
2022/12/21 05:57:37;;;;;;;17.70;8.20;;;;;;;;;;6232834;23;20159;-84
2022/12/21 06:00:03;;;;;;;12.30;9.23;;;;;;;;;;6233479;23;20155;-84
2022/12/21 06:02:29;;;;;;;37.83;10.20;;;;;;;;;;6232951;23;20163;-84
2022/12/21 06:04:54;;;;;;;36.43;9.70;;;;;;;;;;6259944;23;20406;-84
2022/12/21 06:07:19;;;;;;;32.37;10.00;;;;;;;;;;6234200;23;20178;-84
2022/12/21 06:09:45;;;;;;;18.07;9.83;;;;;;;;;;6233112;23;20150;-84
2022/12/21 06:12:10;;;;;;;34.67;9.20;;;;;;;;;;6234564;23;20185;-84
2022/12/21 06:14:35;;;;;;;36.87;8.00;;;;;;;;;;6233330;23;20171;-82
2022/12/21 06:17:01;;;;;;;36.43;9.47;;;;;;;;;;6260337;23;20233;-81
2022/12/21 06:19:26;;;;;;;60.20;10.40;;;;;;;;;;6261176;23;20139;-81
2022/12/21 06:21:52;;;;;;;12.17;9.10;;;;;;;;;;6261295;23;20146;-83
2022/12/21 06:24:17;;;;;;;25.30;8.23;;;;;;;;;;6262554;23;20186;-83
2022/12/21 06:26:42;;;;;;;18.80;9.67;;;;;;;;;;6265016;23;20147;-83
2022/12/21 06:29:08;;;;;;;22.73;8.50;;;;;;;;;;6236912;23;20180;-83
2022/12/21 06:31:33;;;;;;;26.70;9.87;;;;;;;;;;6262397;23;20171;-82
2022/12/21 06:34:00;;;;;;;19.23;8.27;;;;;;;;;;6227517;23;20591;-80
2022/12/21 06:36:28;;;;;;;61.37;10.13;;;;;;;;;;6230321;23;20367;-84
2022/12/21 06:38:55;;;;;;;25.43;8.73;;;;;;;;;;6260346;23;20155;-85
2022/12/21 06:41:20;;;;;;;33.00;9.53;;;;;;;;;;6235670;23;20370;-85
2022/12/21 06:43:46;;;;;;;12.53;8.23;;;;;;;;;;6234400;23;20433;-85
2022/12/21 06:46:15;;;;;;;52.00;8.87;;;;;;;;;;6234032;23;20226;-84
2022/12/21 06:48:41;;;;;;;69.63;10.87;;;;;;;;;;6235028;23;20385;-84
2022/12/21 06:51:09;;;;;;;68.30;10.13;;;;;;;;;;6235040;23;20441;-84
2022/12/21 06:53:35;;;;;;;11.70;8.50;;;;;;;;;;6235489;23;20536;-84
2022/12/21 06:56:09;;;;;;;12.10;8.70;;;;;;;;;;6234382;23;20688;-84
2022/12/21 06:58:35;;;;;;;56.20;10.03;;;;;;;;;;6235244;23;20367;-85
2022/12/21 07:01:07;;;;;;;20.97;8.80;;;;;;;;;;6234306;23;20441;-85
2022/12/21 07:03:33;;;;;;;35.97;10.17;;;;;;;;;;6234171;23;20630;-85
2022/12/21 07:05:59;;;;;;;38.60;10.47;;;;;;;;;;6234659;23;20381;-85
2022/12/21 07:08:24;;;;;;;17.17;9.30;;;;;;;;;;6234876;23;20178;-84
2022/12/21 07:10:50;;;;;;;26.17;9.70;;;;;;;;;;6234691;23;20504;-84
2022/12/21 07:13:15;;;;;;;42.57;10.37;;;;;;;;;;6234956;23;20155;-85
2022/12/21 07:15:40;;;;;;;52.83;9.50;;;;;;;;;;6236720;23;20191;-85
2022/12/21 07:18:06;;;;;;;30.03;9.03;;;;;;;;;;6234723;23;20207;-85
2022/12/21 07:20:32;;;;;;;25.17;9.13;;;;;;;;;;6236207;23;20147;-85
2022/12/21 07:22:57;;;;;;;58.27;9.60;;;;;;;;;;6237138;23;20374;-84
2022/12/21 07:25:23;;;;;;;34.67;9.80;;;;;;;;;;6237158;23;20186;-85
2022/12/21 07:27:51;;;;;;;37.10;11.10;;;;;;;;;;6261378;23;20510;-85
2022/12/21 07:30:16;;;;;;;47.97;9.90;;;;;;;;;;6236980;23;20155;-85
2022/12/21 07:32:42;;;;;;;34.30;10.20;;;;;;;;;;6237221;23;20425;-84
2022/12/21 07:35:08;;;;;;;28.97;9.70;;;;;;;;;;6263073;23;20194;-84
2022/12/21 07:37:34;;;;;;;19.47;10.73;;;;;;;;;;6263371;23;20139;-84
2022/12/21 07:40:00;;;;;;;50.97;11.00;;;;;;;;;;6237125;23;20428;-84
2022/12/21 07:42:25;;;;;;;24.10;10.50;;;;;;;;;;6237567;23;20158;-85
2022/12/21 07:44:50;;;;;;;81.83;12.30;;;;;;;;;;6237692;23;20175;-83
2022/12/21 07:47:16;;;;;;;17.20;10.63;;;;;;;;;;6237275;23;20177;-84
2022/12/21 07:49:41;;;;;;;65.83;11.63;;;;;;;;;;6262687;23;20143;-84
2022/12/21 07:52:07;;;;;;;20.60;10.73;;;;;;;;;;6236360;23;20175;-84
2022/12/21 07:54:32;;;;;;;25.47;12.20;;;;;;;;;;6236899;23;20167;-84
2022/12/21 07:56:59;;;;;;;74.30;13.40;;;;;;;;;;6238324;23;20460;-84
2022/12/21 07:59:27;;;;;;;23.40;11.27;;;;;;;;;;6237527;23;20148;-83
2022/12/21 08:01:53;;;;;;;29.80;13.10;;;;;;;;;;6236417;23;20389;-84
2022/12/21 08:04:18;;;;;;;29.77;12.50;;;;;;;;;;6237425;23;20401;-84
2022/12/21 08:06:45;;;;;;;50.77;16.27;;;;;;;;;;6238144;23;20226;-83
2022/12/21 08:09:10;;;;;;;77.57;15.67;;;;;;;;;;6236128;23;20182;-81
2022/12/21 08:11:35;;;;;;;25.10;13.40;;;;;;;;;;6255886;23;20485;-80
2022/12/21 08:14:01;;;;;;;23.07;14.23;;;;;;;;;;6227029;23;20171;-80
2022/12/21 08:16:26;;;;;;;32.13;13.27;;;;;;;;;;6249021;23;20147;-80
2022/12/21 08:18:51;;;;;;;38.40;14.10;;;;;;;;;;6249480;23;20578;-80
2022/12/21 08:21:17;;;;;;;28.57;14.77;;;;;;;;;;6259077;23;20550;-82
2022/12/21 08:23:42;;;;;;;43.77;17.00;;;;;;;;;;6260606;23;20177;-83
2022/12/21 08:26:10;;;;;;;62.10;16.60;;;;;;;;;;6236654;23;20147;-82
2022/12/21 08:28:35;;;;;;;66.17;17.23;;;;;;;;;;6236158;23;20177;-83
2022/12/21 08:31:05;;;;;;;34.30;14.43;;;;;;;;;;6260414;23;20410;-83
2022/12/21 08:33:30;;;;;;;29.67;14.70;;;;;;;;;;6232049;22;20190;-75
2022/12/21 08:35:56;;;;;;;52.33;16.50;;;;;;;;;;6240130;22;20456;-74
2022/12/21 08:38:22;;;;;;;52.27;15.60;;;;;;;;;;6242133;22;20200;-75
2022/12/21 08:40:47;;;;;;;40.00;16.50;;;;;;;;;;6243951;22;20150;-73
2022/12/21 08:43:16;;;;;;;96.97;16.37;;;;;;;;;;6285349;22;20166;-73
2022/12/21 08:45:41;;;;;;;75.43;16.67;;;;;;;;;;6270972;22;20153;-74
2022/12/21 08:48:06;;;;;;;49.50;16.90;;;;;;;;;;6300875;22;20364;-74
2022/12/21 08:50:32;;;;;;;84.27;17.17;;;;;;;;;;6297838;22;20638;-74
2022/12/21 08:52:57;;;;;;;111.27;15.70;;;;;;;;;;6301834;22;20754;-74
2022/12/21 08:55:22;;;;;;;70.70;17.43;;;;;;;;;;6298840;22;20474;-73
2022/12/21 08:57:48;;;;;;;102.40;16.90;;;;;;;;;;6301347;22;20142;-75
2022/12/21 09:00:13;;;;;;;33.77;15.87;;;;;;;;;;6274941;22;20476;-77
2022/12/21 09:02:39;;;;;;;42.07;17.37;;;;;;;;;;6274258;22;20173;-75
2022/12/21 09:05:07;;;;;;;94.77;17.00;;;;;;;;;;6300735;22;20149;-73
2022/12/21 09:07:33;;;;;;;59.90;17.67;;;;;;;;;;6296829;22;20146;-74
2022/12/21 09:10:04;;;;;;;98.17;19.10;;;;;;;;;;6298984;22;20368;-77
2022/12/21 09:12:29;;;;;;;89.40;17.03;;;;;;;;;;6271347;22;20560;-75
2022/12/21 09:14:55;;;;;;;83.23;17.73;;;;;;;;;;6299812;22;20373;-75
2022/12/21 09:17:20;;;;;;;64.53;17.17;;;;;;;;;;6298276;22;20146;-74
2022/12/21 09:19:46;;;;;;;35.83;17.90;;;;;;;;;;6272182;22;20666;-73
2022/12/21 09:22:12;;;;;;;27.10;16.43;;;;;;;;;;6270045;22;20212;-74
2022/12/21 09:24:37;;;;;;;39.57;18.37;;;;;;;;;;6297532;22;20213;-74
2022/12/21 09:27:02;;;;;;;57.43;19.67;;;;;;;;;;6299635;22;20454;-78
2022/12/21 09:29:29;;;;;;;41.10;20.40;;;;;;;;;;6300143;22;20142;-74
2022/12/21 09:31:54;;;;;;;47.17;18.77;;;;;;;;;;6299565;22;20212;-73
2022/12/21 09:34:19;;;;;;;47.73;19.63;;;;;;;;;;6296854;22;20384;-74
2022/12/21 09:36:45;;;;;;;44.40;18.83;;;;;;;;;;6299706;22;20467;-76
2022/12/21 09:39:10;;;;;;;41.80;20.77;;;;;;;;;;6298975;22;20168;-76
2022/12/21 09:41:45;;;;;;;72.27;22.23;;;;;;;;;;6298020;22;20137;-74
2022/12/21 09:44:18;;;;;;;51.90;20.43;;;;;;;;;;6298551;22;20196;-75
2022/12/21 09:46:45;;;;;;;128.90;22.90;;;;;;;;;;6297394;22;20372;-75
2022/12/21 09:49:21;;;;;;;71.30;22.63;;;;;;;;;;6296961;22;20365;-73
2022/12/21 09:52:06;;;;;;;81.37;23.30;;;;;;;;;;6270559;22;20830;-75
2022/12/21 09:55:07;;;;;;;65.27;25.63;;;;;;;;;;6300084;22;20355;-74
2022/12/21 09:57:34;;;;;;;76.30;27.33;;;;;;;;;;6145410;23;20859;-74
2022/12/21 10:00:00;;;;;;;99.50;25.50;;;;;;;;;;6241695;22;20430;-73
2022/12/21 10:02:37;;;;;;;52.57;25.93;;;;;;;;;;6296153;22;20775;-75
2022/12/21 10:05:21;;;;;;;61.83;25.57;;;;;;;;;;6273264;22;20724;-73
2022/12/21 10:07:55;;;;;;;52.40;24.80;;;;;;;;;;6271076;22;20377;-75
2022/12/21 10:10:22;;;;;;;49.70;23.17;;;;;;;;;;6273383;22;20479;-75
2022/12/21 10:12:55;;;;;;;56.97;25.47;;;;;;;;;;6300418;22;20451;-73
2022/12/21 10:15:29;;;;;;;59.93;27.87;;;;;;;;;;6299917;22;20567;-74
2022/12/21 10:18:13;;;;;;;54.93;25.73;;;;;;;;;;6300524;22;20412;-73
2022/12/21 10:20:46;;;;;;;48.47;23.83;;;;;;;;;;6274795;22;20778;-73
2022/12/21 10:23:24;;;;;;;53.97;25.30;;;;;;;;;;6302017;22;20475;-77
2022/12/21 10:25:55;;;;;;;52.47;23.57;;;;;;;;;;6302957;22;20611;-75
2022/12/21 10:28:23;;;;;;;65.80;23.73;;;;;;;;;;6301930;22;20360;-76
2022/12/21 10:31:00;;;;;;;52.87;24.87;;;;;;;;;;6301926;22;20448;-74
2022/12/21 10:33:25;;;;;;;70.33;26.43;;;;;;;;;;6301955;22;20402;-75
2022/12/21 10:35:53;;;;;;;62.10;25.47;;;;;;;;;;6275513;22;20460;-74
2022/12/21 10:38:19;;;;;;;49.80;24.67;;;;;;;;;;6302467;22;20142;-76
2022/12/21 10:40:48;;;;;;;47.83;24.73;;;;;;;;;;6274952;22;20388;-73
2022/12/21 10:43:13;;;;;;;50.37;25.60;;;;;;;;;;6301824;22;20165;-75
2022/12/21 10:45:39;;;;;;;59.80;23.43;;;;;;;;;;6302779;22;20365;-76
2022/12/21 10:48:04;;;;;;;59.20;24.47;;;;;;;;;;6300749;22;20142;-75
2022/12/21 10:50:34;;;;;;;49.53;23.60;;;;;;;;;;6304024;22;20199;-76
2022/12/21 10:53:15;;;;;;;60.87;23.93;;;;;;;;;;6304227;22;20276;-76
2022/12/21 10:55:40;;;;;;;59.73;24.30;;;;;;;;;;6304687;22;20714;-75
2022/12/21 10:58:11;;;;;;;56.20;23.47;;;;;;;;;;6276790;22;20421;-75
2022/12/21 11:00:38;;;;;;;57.33;27.43;;;;;;;;;;6304699;22;20130;-75
2022/12/21 11:03:05;;;;;;;53.40;23.87;;;;;;;;;;6275807;22;20719;-75
2022/12/21 11:05:30;;;;;;;56.57;24.07;;;;;;;;;;6277248;22;20702;-77
2022/12/21 11:08:14;;;;;;;49.90;23.90;;;;;;;;;;6276126;22;20364;-76
2022/12/21 11:10:40;;;;;;;54.33;24.37;;;;;;;;;;6304815;22;20149;-75
2022/12/21 11:13:06;;;;;;;53.07;24.00;;;;;;;;;;6303997;22;20423;-73
2022/12/21 11:15:32;;;;;;;54.63;24.70;;;;;;;;;;6305182;22;20835;-73
2022/12/21 11:17:57;;;;;;;45.40;23.87;;;;;;;;;;6303005;22;20217;-76
2022/12/21 11:20:23;;;;;;;53.13;27.07;;;;;;;;;;6304829;22;20371;-76
2022/12/21 11:22:50;;;;;;;47.70;24.33;;;;;;;;;;6276276;22;20510;-74
2022/12/21 11:25:18;;;;;;;50.30;23.90;;;;;;;;;;6303896;22;20153;-77
2022/12/21 11:27:48;;;;;;;54.30;24.87;;;;;;;;;;6303729;22;20370;-74
2022/12/21 11:30:19;;;;;;;51.17;25.90;;;;;;;;;;6304561;22;20367;-73
2022/12/21 11:32:45;;;;;;;52.23;25.50;;;;;;;;;;6303314;22;20424;-75
2022/12/21 11:35:17;;;;;;;55.50;27.10;;;;;;;;;;6303689;22;20364;-74
2022/12/21 11:37:43;;;;;;;52.83;25.90;;;;;;;;;;6303959;22;20552;-75
2022/12/21 11:40:12;;;;;;;48.10;25.47;;;;;;;;;;6304540;22;21112;-73
2022/12/21 11:42:52;;;;;;;55.33;25.40;;;;;;;;;;6301887;22;20422;-72
2022/12/21 11:45:20;;;;;;;57.80;27.33;;;;;;;;;;6303473;22;20371;-74
2022/12/21 11:48:12;;;;;;;54.87;26.97;;;;;;;;;;6273858;22;20435;-74
2022/12/21 11:50:55;;;;;;;54.77;27.23;;;;;;;;;;6296589;22;20426;-73
2022/12/21 11:53:33;;;;;;;55.83;29.47;;;;;;;;;;6303957;22;20384;-74
2022/12/21 11:56:08;;;;;;;57.40;29.00;;;;;;;;;;6303987;22;20356;-74
2022/12/21 11:58:43;;;;;;;62.77;28.23;;;;;;;;;;6275374;22;20364;-74
2022/12/21 12:01:24;;;;;;;48.60;26.40;;;;;;;;;;6302903;22;20445;-73
2022/12/21 12:03:49;;;;;;;52.27;27.37;;;;;;;;;;6275450;22;20714;-74
2022/12/21 12:06:20;;;;;;;50.10;26.50;;;;;;;;;;6303344;22;20371;-72
2022/12/21 12:08:55;;;;;;;56.27;26.10;;;;;;;;;;6303733;22;20157;-72
2022/12/21 12:11:38;;;;;;;46.63;24.13;;;;;;;;;;6303735;22;20422;-73
2022/12/21 12:14:22;;;;;;;45.63;24.80;;;;;;;;;;6301725;22;20748;-71
2022/12/21 12:16:59;;;;;;;50.20;24.20;;;;;;;;;;6299641;22;20730;-73
2022/12/21 12:20:03;;;;;;;47.80;26.23;;;;;;;;;;6302582;22;20360;-75
2022/12/21 12:22:29;;;;;;;53.80;25.60;;;;;;;;;;6148255;23;20396;-76
2022/12/21 12:25:12;;;;;;;50.60;25.23;;;;;;;;;;6124372;23;20415;-76
2022/12/21 12:27:55;;;;;;;45.13;24.07;;;;;;;;;;6237432;22;20157;-73
2022/12/21 12:30:25;;;;;;;43.30;23.60;;;;;;;;;;6303921;22;20364;-74
2022/12/21 12:33:14;;;;;;;43.80;23.50;;;;;;;;;;6302090;22;20435;-72
2022/12/21 12:35:49;;;;;;;45.50;23.50;;;;;;;;;;6283543;22;20463;-77
2022/12/21 12:38:17;;;;;;;44.23;23.53;;;;;;;;;;6303787;22;20360;-73
2022/12/21 12:40:51;;;;;;;41.10;22.93;;;;;;;;;;6276801;22;20751;-75
2022/12/21 12:43:17;;;;;;;42.37;22.30;;;;;;;;;;6302579;22;20380;-74
2022/12/21 12:45:45;;;;;;;41.20;20.40;;;;;;;;;;6303128;22;20365;-73
2022/12/21 12:48:29;;;;;;;38.07;20.43;;;;;;;;;;6302284;22;20138;-73
2022/12/21 12:51:13;;;;;;;41.60;21.60;;;;;;;;;;6303074;22;20361;-77
2022/12/21 12:53:46;;;;;;;39.17;21.20;;;;;;;;;;6276129;22;20907;-75
2022/12/21 12:56:14;;;;;;;44.90;21.43;;;;;;;;;;6303831;22;20344;-73
2022/12/21 12:58:49;;;;;;;40.43;20.63;;;;;;;;;;6300424;22;20364;-74
2022/12/21 13:01:18;;;;;;;32.93;20.20;;;;;;;;;;6302432;22;20794;-74
2022/12/21 13:03:59;;;;;;;35.67;18.60;;;;;;;;;;6273193;22;20392;-75
2022/12/21 13:06:24;;;;;;;36.27;18.30;;;;;;;;;;6303453;22;20368;-76
2022/12/21 13:08:55;;;;;;;38.57;18.80;;;;;;;;;;6301057;22;20372;-73
2022/12/21 13:11:39;;;;;;;41.00;19.00;;;;;;;;;;6302522;22;20170;-73
2022/12/21 13:14:15;;;;;;;37.80;19.63;;;;;;;;;;6303247;22;20518;-72
2022/12/21 13:16:47;;;;;;;43.20;19.97;;;;;;;;;;6303607;22;20371;-75
2022/12/21 13:19:17;;;;;;;39.70;19.67;;;;;;;;;;6301404;22;20708;-74
2022/12/21 13:21:43;;;;;;;53.13;20.33;;;;;;;;;;6303324;22;20775;-72
2022/12/21 13:24:21;;;;;;;38.23;19.37;;;;;;;;;;6302967;22;20400;-72
2022/12/21 13:26:48;;;;;;;43.10;19.37;;;;;;;;;;6303426;22;20345;-76
2022/12/21 13:29:19;;;;;;;36.03;20.03;;;;;;;;;;6301818;22;20375;-74
2022/12/21 13:31:51;;;;;;;54.00;22.37;;;;;;;;;;6275124;22;20423;-73
2022/12/21 13:34:22;;;;;;;50.17;22.50;;;;;;;;;;6301863;22;20377;-76
2022/12/21 13:36:48;;;;;;;41.93;21.87;;;;;;;;;;6302330;22;20379;-75
2022/12/21 13:39:26;;;;;;;39.47;20.80;;;;;;;;;;6303286;22;20361;-75
2022/12/21 13:42:03;;;;;;;42.47;20.40;;;;;;;;;;6271379;22;20449;-74
2022/12/21 13:44:47;;;;;;;42.83;23.50;;;;;;;;;;6302333;22;20352;-71
2022/12/21 13:47:14;;;;;;;45.87;21.50;;;;;;;;;;6302796;22;20364;-74
2022/12/21 13:50:03;;;;;;;46.40;21.47;;;;;;;;;;6302282;22;20364;-73
2022/12/21 13:52:47;;;;;;;43.30;21.80;;;;;;;;;;6229955;22;20458;-72
2022/12/21 13:55:15;;;;;;;46.63;22.30;;;;;;;;;;6275580;22;20395;-76
2022/12/21 13:57:52;;;;;;;41.67;20.90;;;;;;;;;;6302137;22;20364;-72
2022/12/21 14:00:25;;;;;;;38.50;22.83;;;;;;;;;;6301395;22;20360;-72
2022/12/21 14:02:55;;;;;;;41.97;21.27;;;;;;;;;;6302891;22;20381;-75
2022/12/21 14:05:24;;;;;;;43.83;21.57;;;;;;;;;;6302037;22;20411;-73
2022/12/21 14:08:05;;;;;;;55.87;22.57;;;;;;;;;;6302638;22;20356;-75
2022/12/21 14:10:49;;;;;;;44.00;20.90;;;;;;;;;;6302344;22;20368;-73
2022/12/21 14:13:40;;;;;;;44.73;21.50;;;;;;;;;;6273989;22;20465;-76
2022/12/21 14:16:22;;;;;;;39.73;21.57;;;;;;;;;;6302282;22;20351;-75
2022/12/21 14:18:52;;;;;;;51.20;22.50;;;;;;;;;;6302340;22;20444;-74
2022/12/21 14:21:25;;;;;;;52.30;23.30;;;;;;;;;;6301900;22;20357;-72
2022/12/21 14:23:56;;;;;;;44.87;21.87;;;;;;;;;;6302496;22;20408;-71
2022/12/21 14:26:31;;;;;;;48.60;24.27;;;;;;;;;;6302342;22;20356;-72
2022/12/21 14:29:03;;;;;;;48.50;23.67;;;;;;;;;;6302074;22;20419;-76
2022/12/21 14:31:32;;;;;;;46.83;24.60;;;;;;;;;;6301951;22;20397;-68
2022/12/21 14:36:29;;;;;;;56.17;24.73;;;;;;;;;;6293228;22;20483;-70
2022/12/21 14:39:01;;;;;;;54.10;26.27;;;;;;;;;;6301728;22;20384;-70
2022/12/21 14:41:39;;;;;;;44.50;24.67;;;;;;;;;;6302934;22;20842;-70
2022/12/21 14:44:21;;;;;;;48.90;23.93;;;;;;;;;;6303359;22;20368;-70
2022/12/21 14:47:05;;;;;;;66.90;27.77;;;;;;;;;;6333938;22;20344;-70
2022/12/21 14:49:35;;;;;;;51.33;25.60;;;;;;;;;;6332988;22;20355;-70